createdAt,value
2022-08-01T00:01:14.797Z,17.60
2022-08-01T00:03:42.178Z,17.60
2022-08-01T00:06:09.463Z,17.60
2022-08-01T00:08:36.582Z,17.60
2022-08-01T00:11:03.734Z,17.60
2022-08-01T00:13:31.374Z,17.60
2022-08-01T00:15:58.471Z,17.50
2022-08-01T00:18:25.574Z,17.50
2022-08-01T00:20:52.856Z,17.50
2022-08-01T00:23:19.973Z,17.50
2022-08-01T00:25:47.023Z,17.40
2022-08-01T00:28:14.634Z,17.40
2022-08-01T00:30:41.664Z,17.40
2022-08-01T00:33:08.871Z,17.40
2022-08-01T00:35:36.355Z,17.40
2022-08-01T00:38:03.759Z,17.40
2022-08-01T00:40:30.802Z,17.40
2022-08-01T00:42:58.507Z,17.40
2022-08-01T00:45:25.586Z,17.40
2022-08-01T00:47:55.288Z,17.40
2022-08-01T00:50:24.866Z,17.30
2022-08-01T00:52:52.869Z,17.30
2022-08-01T00:55:21.063Z,17.30
2022-08-01T00:58:05.008Z,17.20
2022-08-01T01:00:52.817Z,17.30
2022-08-01T01:03:43.309Z,17.20
2022-08-01T01:07:10.706Z,17.20
2022-08-01T01:10:01.352Z,17.20
2022-08-01T01:12:55.745Z,17.20
2022-08-01T01:15:42.525Z,17.10
2022-08-01T01:18:15.483Z,17.10
2022-08-01T01:20:50.585Z,17.10
2022-08-01T01:23:46.850Z,17.10
2022-08-01T01:27:08.425Z,17.10
2022-08-01T01:29:58.998Z,17.10
2022-08-01T01:32:42.769Z,17.10
2022-08-01T01:35:25.168Z,17.00
2022-08-01T01:38:02.650Z,17.00
2022-08-01T01:40:32.133Z,17.00
2022-08-01T01:43:00.838Z,17.00
2022-08-01T01:45:30.419Z,17.00
2022-08-01T01:47:59.672Z,17.00
2022-08-01T01:50:29.550Z,17.00
2022-08-01T01:52:59.049Z,17.00
2022-08-01T01:55:27.829Z,17.00
2022-08-01T01:57:57.746Z,17.00
2022-08-01T02:00:26.621Z,17.00
2022-08-01T02:02:57.811Z,16.90
2022-08-01T02:05:28.974Z,16.90
2022-08-01T02:12:39.951Z,16.90
2022-08-01T02:15:10.322Z,16.80
2022-08-01T02:17:49.728Z,16.80
2022-08-01T02:20:18.646Z,16.70
2022-08-01T02:22:55.985Z,16.70
2022-08-01T02:26:11.177Z,16.70
2022-08-01T02:28:38.988Z,16.70
2022-08-01T02:31:15.290Z,16.60
2022-08-01T02:33:49.625Z,16.60
2022-08-01T02:36:32.468Z,16.60
2022-08-01T02:39:07.539Z,16.60
2022-08-01T02:41:43.283Z,16.60
2022-08-01T02:44:21.095Z,16.60
2022-08-01T02:46:58.675Z,16.50
2022-08-01T02:49:40.204Z,16.50
2022-08-01T02:52:16.595Z,16.50
2022-08-01T02:54:48.659Z,16.50
2022-08-01T02:57:19.558Z,16.50
2022-08-01T02:59:50.741Z,16.40
2022-08-01T03:02:27.604Z,16.40
2022-08-01T03:04:58.397Z,16.40
2022-08-01T03:07:34.264Z,16.40
2022-08-01T03:19:47.159Z,16.30
2022-08-01T03:26:48.876Z,16.20
2022-08-01T03:29:26.510Z,16.20
2022-08-01T03:31:55.450Z,16.10
2022-08-01T03:43:51.956Z,16.10
2022-08-01T03:46:30.045Z,16.10
2022-08-01T03:49:07.382Z,16.10
2022-08-01T03:51:37.002Z,16.00
2022-08-01T03:54:07.614Z,16.00
2022-08-01T03:56:37.520Z,16.00
2022-08-01T03:59:06.799Z,16.00
2022-08-01T04:01:35.487Z,16.00
2022-08-01T04:04:06.165Z,16.00
2022-08-01T04:06:33.741Z,15.90
2022-08-01T04:09:01.865Z,16.00
2022-08-01T04:11:29.301Z,16.00
2022-08-01T04:13:57.781Z,16.00
2022-08-01T04:16:25.694Z,16.00
2022-08-01T04:18:53.169Z,16.00
2022-08-01T04:21:30.036Z,16.00
2022-08-01T04:24:05.898Z,16.00
2022-08-01T04:26:38.576Z,16.10
2022-08-01T04:29:09.126Z,16.00
2022-08-01T04:31:46.218Z,16.00
2022-08-01T04:34:21.174Z,16.10
2022-08-01T04:36:51.086Z,16.10
2022-08-01T04:39:20.867Z,16.00
2022-08-01T04:41:50.338Z,16.10
2022-08-01T04:44:17.583Z,16.10
2022-08-01T04:46:46.570Z,16.10
2022-08-01T04:49:17.638Z,16.10
2022-08-01T04:51:58.590Z,16.20
2022-08-01T04:54:31.152Z,16.20
2022-08-01T04:57:01.331Z,16.40
2022-08-01T04:59:41.452Z,16.50
2022-08-01T05:02:14.832Z,16.60
2022-08-01T05:04:44.811Z,16.70
2022-08-01T05:07:14.035Z,16.80
2022-08-01T05:09:43.070Z,16.90
2022-08-01T05:12:11.890Z,17.10
2022-08-01T05:14:39.960Z,17.20
2022-08-01T05:17:08.992Z,17.30
2022-08-01T05:19:39.245Z,17.40
2022-08-01T05:22:09.613Z,17.60
2022-08-01T05:24:40.276Z,17.80
2022-08-01T05:27:11.656Z,18.00
2022-08-01T05:29:44.568Z,18.20
2022-08-01T05:32:12.607Z,18.50
2022-08-01T05:34:39.584Z,18.60
2022-08-01T05:37:06.798Z,18.80
2022-08-01T05:39:34.215Z,18.90
2022-08-01T05:42:03.811Z,19.00
2022-08-01T05:44:31.178Z,19.30
2022-08-01T05:46:58.602Z,19.50
2022-08-01T05:49:26.074Z,19.70
2022-08-01T05:51:53.615Z,19.90
2022-08-01T05:54:21.117Z,20.20
2022-08-01T05:56:48.097Z,20.50
2022-08-01T05:59:15.377Z,20.70
2022-08-01T06:01:43.185Z,21.00
2022-08-01T06:04:12.469Z,21.30
2022-08-01T06:06:39.485Z,21.50
2022-08-01T06:09:06.970Z,21.70
2022-08-01T06:11:33.963Z,21.90
2022-08-01T06:14:01.077Z,22.20
2022-08-01T06:16:28.559Z,22.40
2022-08-01T06:18:56.971Z,22.60
2022-08-01T06:21:24.440Z,22.70
2022-08-01T06:23:51.869Z,22.90
2022-08-01T06:26:20.540Z,23.00
2022-08-01T06:28:48.135Z,22.90
2022-08-01T06:31:16.624Z,22.90
2022-08-01T06:33:43.685Z,23.10
2022-08-01T06:36:10.755Z,23.40
2022-08-01T06:38:38.933Z,23.70
2022-08-01T07:04:17.245Z,24.70
2022-08-01T07:06:44.956Z,25.00
2022-08-01T07:09:14.331Z,25.10
2022-08-01T07:11:42.424Z,25.10
2022-08-01T07:14:09.954Z,25.10
2022-08-01T07:16:37.222Z,25.20
2022-08-01T07:19:04.606Z,25.40
2022-08-01T07:47:37.387Z,27.60
2022-08-01T07:50:10.976Z,27.90
2022-08-01T07:52:38.437Z,28.00
2022-08-01T07:55:06.765Z,28.20
2022-08-01T07:57:34.264Z,28.40
2022-08-01T08:21:19.115Z,28.90
2022-08-01T08:38:19.922Z,29.20
2022-08-01T08:40:58.251Z,29.40
2022-08-01T08:43:27.121Z,29.60
2022-08-01T08:45:59.083Z,30.00
2022-08-01T08:48:32.194Z,30.30
2022-08-01T08:51:03.401Z,30.60
2022-08-01T08:53:34.927Z,31.00
2022-08-01T08:56:07.515Z,31.10
2022-08-01T08:58:38.707Z,31.20
2022-08-01T09:01:09.855Z,31.40
2022-08-01T09:03:37.665Z,31.50
2022-08-01T09:06:05.873Z,31.70
2022-08-01T09:08:34.590Z,32.00
2022-08-01T09:11:04.807Z,32.20
2022-08-01T09:13:32.062Z,32.20
2022-08-01T09:16:02.372Z,32.30
2022-08-01T09:18:45.783Z,32.50
2022-08-01T09:21:25.069Z,32.70
2022-08-01T09:23:55.264Z,33.00
2022-08-01T09:26:35.730Z,33.10
2022-08-01T09:29:10.351Z,33.10
2022-08-01T09:31:47.112Z,33.30
2022-08-01T09:34:28.833Z,33.40
2022-08-01T09:37:05.758Z,33.50
2022-08-01T09:39:41.095Z,33.60
2022-08-01T09:42:28.694Z,33.60
2022-08-01T09:44:57.354Z,33.70
2022-08-01T09:47:41.830Z,33.80
2022-08-01T09:50:12.027Z,33.90
2022-08-01T09:52:41.100Z,34.10
2022-08-01T09:55:09.363Z,34.20
2022-08-01T09:57:36.581Z,34.40
2022-08-01T10:00:35.697Z,34.50
2022-08-01T10:03:28.221Z,34.70
2022-08-01T10:05:55.818Z,35.10
2022-08-01T10:08:26.401Z,35.20
2022-08-01T10:11:13.023Z,35.50
2022-08-01T10:13:45.290Z,35.70
2022-08-01T10:16:15.780Z,35.90
2022-08-01T10:18:46.319Z,35.90
2022-08-01T10:21:15.886Z,36.00
2022-08-01T10:24:07.941Z,36.20
2022-08-01T10:26:39.965Z,36.30
2022-08-01T10:29:45.172Z,36.50
2022-08-01T10:31:56.075Z,36.50
2022-08-01T10:34:33.346Z,36.70
2022-08-01T10:37:02.494Z,36.90
2022-08-01T10:39:36.390Z,36.90
2022-08-01T10:42:10.699Z,37.00
2022-08-01T10:44:40.286Z,36.80
2022-08-01T10:47:19.470Z,36.90
2022-08-01T10:50:15.033Z,36.90
2022-08-01T10:53:15.954Z,36.80
2022-08-01T10:56:16.641Z,36.70
2022-08-01T10:58:48.807Z,36.60
2022-08-01T11:01:26.212Z,36.80
2022-08-01T11:04:41.646Z,36.90
2022-08-01T11:07:26.013Z,36.80
2022-08-01T11:10:24.255Z,36.70
2022-08-01T11:12:51.974Z,36.60
2022-08-01T11:15:31.871Z,36.60
2022-08-01T11:18:04.562Z,36.60
2022-08-01T11:20:41.666Z,36.50
2022-08-01T11:23:11.874Z,36.40
2022-08-01T11:26:06.224Z,36.30
2022-08-01T11:28:40.434Z,36.30
2022-08-01T11:31:11.199Z,36.30
2022-08-01T11:33:42.230Z,36.10
2022-08-01T11:36:14.666Z,36.00
2022-08-01T11:39:00.463Z,35.80
2022-08-01T11:41:37.918Z,35.80
2022-08-01T11:44:11.691Z,35.70
2022-08-01T11:47:09.305Z,35.60
2022-08-01T11:49:49.729Z,35.40
2022-08-01T11:52:25.055Z,35.30
2022-08-01T11:55:10.131Z,35.10
2022-08-01T11:57:39.598Z,35.00
2022-08-01T12:00:17.444Z,34.90
2022-08-01T12:02:47.825Z,34.80
2022-08-01T12:05:21.485Z,34.60
2022-08-01T12:07:54.765Z,34.50
2022-08-01T12:10:33.225Z,34.30
2022-08-01T12:13:06.634Z,34.10
2022-08-01T12:15:38.609Z,33.80
2022-08-01T12:18:08.883Z,33.70
2022-08-01T12:20:55.753Z,33.40
2022-08-01T12:23:25.152Z,33.20
2022-08-01T12:25:53.425Z,33.00
2022-08-01T12:28:21.234Z,32.90
2022-08-01T12:30:50.255Z,32.70
2022-08-01T12:33:22.560Z,32.60
2022-08-01T12:35:50.223Z,32.50
2022-08-01T12:38:26.081Z,32.40
2022-08-01T12:40:54.896Z,32.30
2022-08-01T12:43:29.406Z,32.20
2022-08-01T12:46:04.453Z,32.20
2022-08-01T12:48:32.751Z,32.30
2022-08-01T12:51:02.414Z,32.20
2022-08-01T12:53:40.147Z,32.20
2022-08-01T12:56:11.357Z,32.20
2022-08-01T12:58:40.000Z,32.10
2022-08-01T13:01:13.263Z,32.10
2022-08-01T13:03:41.921Z,32.00
2022-08-01T13:06:16.200Z,32.00
2022-08-01T13:08:46.210Z,31.90
2022-08-01T13:11:17.699Z,31.80
2022-08-01T13:13:52.896Z,31.70
2022-08-01T13:16:43.228Z,31.70
2022-08-01T13:19:15.455Z,31.70
2022-08-01T13:21:57.348Z,31.80
2022-08-01T13:24:30.262Z,31.80
2022-08-01T13:27:05.208Z,31.90
2022-08-01T13:29:42.553Z,31.80
2022-08-01T13:32:28.561Z,31.80
2022-08-01T13:35:09.713Z,31.90
2022-08-01T13:37:38.797Z,31.90
2022-08-01T13:40:11.574Z,32.00
2022-08-01T13:42:39.998Z,32.00
2022-08-01T13:45:13.661Z,32.10
2022-08-01T13:48:03.627Z,32.20
2022-08-01T13:50:32.618Z,32.20
2022-08-01T13:53:00.052Z,32.40
2022-08-01T13:55:31.085Z,32.50
2022-08-01T13:58:06.107Z,32.60
2022-08-01T14:00:33.406Z,32.80
2022-08-01T14:03:00.479Z,32.90
2022-08-01T14:05:28.977Z,32.90
2022-08-01T14:07:56.365Z,33.00
2022-08-01T14:10:25.728Z,32.90
2022-08-01T14:12:53.275Z,33.00
2022-08-01T14:15:38.859Z,33.00
2022-08-01T14:18:21.883Z,33.10
2022-08-01T14:20:49.149Z,33.30
2022-08-01T14:23:18.264Z,33.50
2022-08-01T14:26:03.045Z,33.60
2022-08-01T14:28:34.286Z,33.60
2022-08-01T14:31:02.481Z,33.60
2022-08-01T14:33:31.819Z,33.50
2022-08-01T14:36:28.466Z,33.50
2022-08-01T14:38:49.578Z,33.50
2022-08-01T14:41:17.309Z,33.40
2022-08-01T14:43:44.882Z,33.30
2022-08-01T14:46:13.554Z,33.30
2022-08-01T14:48:41.859Z,33.40
2022-08-01T14:51:09.761Z,33.50
2022-08-01T14:53:37.746Z,33.60
2022-08-01T14:56:05.978Z,33.70
2022-08-01T14:58:34.387Z,33.70
2022-08-01T15:01:05.387Z,33.80
2022-08-01T15:03:33.056Z,33.80
2022-08-01T15:06:00.618Z,33.70
2022-08-01T15:08:28.438Z,33.70
2022-08-01T15:10:56.271Z,33.80
2022-08-01T15:13:23.423Z,34.00
2022-08-01T15:15:53.059Z,34.00
2022-08-01T15:18:20.615Z,34.10
2022-08-01T15:20:47.802Z,34.10
2022-08-01T15:23:15.439Z,34.20
2022-08-01T15:25:43.016Z,34.10
2022-08-01T15:28:11.332Z,34.10
2022-08-01T15:30:39.806Z,34.10
2022-08-01T15:33:07.879Z,34.00
2022-08-01T15:35:34.993Z,34.00
2022-08-01T15:38:04.308Z,34.00
2022-08-01T15:40:35.286Z,34.00
2022-08-01T15:43:03.683Z,34.10
2022-08-01T15:45:47.427Z,34.40
2022-08-01T15:48:17.239Z,34.90
2022-08-01T15:50:44.670Z,35.10
2022-08-01T15:53:12.465Z,34.80
2022-08-01T15:55:40.588Z,34.80
2022-08-01T15:58:08.388Z,34.60
2022-08-01T16:00:40.131Z,34.50
2022-08-01T16:03:10.242Z,34.40
2022-08-01T16:05:43.175Z,34.50
2022-08-01T16:08:13.875Z,34.40
2022-08-01T16:10:42.724Z,34.30
2022-08-01T16:13:10.265Z,34.20
2022-08-01T16:15:41.748Z,34.10
2022-08-01T16:18:13.073Z,34.00
2022-08-01T16:20:45.594Z,33.90
2022-08-01T16:23:15.510Z,33.70
2022-08-01T16:25:46.214Z,33.70
2022-08-01T16:28:14.234Z,33.60
2022-08-01T16:30:48.585Z,33.50
2022-08-01T16:33:53.095Z,33.50
2022-08-01T16:36:17.470Z,33.40
2022-08-01T16:38:46.407Z,33.40
2022-08-01T16:41:19.727Z,33.30
2022-08-01T16:43:53.154Z,33.20
2022-08-01T16:46:26.841Z,33.10
2022-08-01T16:48:55.170Z,33.00
2022-08-01T16:51:22.687Z,32.90
2022-08-01T16:53:50.157Z,32.70
2022-08-01T16:56:18.166Z,32.60
2022-08-01T16:58:45.434Z,32.50
2022-08-01T17:02:03.313Z,32.30
2022-08-01T17:04:02.553Z,32.20
2022-08-01T17:06:30.393Z,32.00
2022-08-01T17:08:58.697Z,31.80
2022-08-01T17:11:26.567Z,31.70
2022-08-01T17:13:53.752Z,31.60
2022-08-01T17:16:21.230Z,31.40
2022-08-01T17:18:49.174Z,31.20
2022-08-01T17:21:16.782Z,31.10
2022-08-01T17:23:44.683Z,31.00
2022-08-01T17:26:13.038Z,30.90
2022-08-01T17:28:40.390Z,30.80
2022-08-01T17:31:10.380Z,30.80
2022-08-01T17:33:45.665Z,30.60
2022-08-01T17:36:14.463Z,30.50
2022-08-01T17:38:42.077Z,30.50
2022-08-01T17:41:09.477Z,30.40
2022-08-01T17:43:36.615Z,30.30
2022-08-01T17:46:05.911Z,30.20
2022-08-01T17:48:33.111Z,30.10
2022-08-01T17:51:00.329Z,30.00
2022-08-01T17:53:28.905Z,29.80
2022-08-01T17:56:07.886Z,29.70
2022-08-01T17:58:51.069Z,29.60
2022-08-01T18:01:20.702Z,29.60
2022-08-01T18:03:48.889Z,29.50
2022-08-01T18:06:19.084Z,29.40
2022-08-01T18:08:47.969Z,29.40
2022-08-01T18:11:17.329Z,29.30
2022-08-01T18:13:45.422Z,29.20
2022-08-01T18:16:13.374Z,29.20
2022-08-01T18:18:43.988Z,29.10
2022-08-01T18:21:12.485Z,29.00
2022-08-01T18:23:39.681Z,28.90
2022-08-01T18:26:08.739Z,28.80
2022-08-01T18:28:42.005Z,28.70
2022-08-01T18:31:20.356Z,28.70
2022-08-01T18:33:48.647Z,28.50
2022-08-01T18:36:31.855Z,28.40
2022-08-01T18:39:06.362Z,28.30
2022-08-01T18:41:39.213Z,28.30
2022-08-01T18:44:08.967Z,28.10
2022-08-01T18:46:39.128Z,28.00
2022-08-01T18:49:10.089Z,27.90
2022-08-01T18:51:44.415Z,27.90
2022-08-01T18:54:15.279Z,27.80
2022-08-01T18:56:45.128Z,27.70
2022-08-01T18:59:14.146Z,27.70
2022-08-01T19:01:42.319Z,27.60
2022-08-01T19:04:14.103Z,27.50
2022-08-01T19:06:43.598Z,27.50
2022-08-01T19:09:20.779Z,27.40
2022-08-01T19:11:50.243Z,27.30
2022-08-01T19:14:17.914Z,27.20
2022-08-01T19:16:47.116Z,27.20
2022-08-01T19:19:14.919Z,27.10
2022-08-01T19:21:55.490Z,27.10
2022-08-01T19:24:29.464Z,27.00
2022-08-01T19:27:08.958Z,26.90
2022-08-01T19:32:51.165Z,26.80
2022-08-01T19:35:18.690Z,26.70
2022-08-01T19:38:02.804Z,26.70
2022-08-01T19:40:48.906Z,26.60
2022-08-01T19:43:33.388Z,26.50
2022-08-01T19:46:05.712Z,26.50
2022-08-01T19:48:38.564Z,26.40
2022-08-01T19:51:12.297Z,26.40
2022-08-01T19:53:44.668Z,26.40
2022-08-01T19:56:14.255Z,26.30
2022-08-01T19:58:43.112Z,26.20
2022-08-01T20:01:16.921Z,26.20
2022-08-01T20:03:49.242Z,26.10
2022-08-01T20:06:16.865Z,26.10
2022-08-01T20:08:45.337Z,26.10
2022-08-01T20:11:14.657Z,26.10
2022-08-01T20:13:44.366Z,26.00
2022-08-01T20:16:11.945Z,26.00
2022-08-01T20:18:40.448Z,25.90
2022-08-01T20:21:12.470Z,25.90
2022-08-01T20:23:43.361Z,25.80
2022-08-01T20:26:14.081Z,25.80
2022-08-01T20:28:46.493Z,25.70
2022-08-01T20:31:20.213Z,25.70
2022-08-01T20:33:49.779Z,25.60
2022-08-01T20:36:24.989Z,25.60
2022-08-01T20:38:56.546Z,25.60
2022-08-01T20:41:27.659Z,25.50
2022-08-01T20:43:59.569Z,25.50
2022-08-01T20:46:29.739Z,25.40
2022-08-01T20:48:58.820Z,25.40
2022-08-01T20:51:28.403Z,25.30
2022-08-01T20:53:56.550Z,25.30
2022-08-01T20:56:36.500Z,25.20
2022-08-01T20:59:55.144Z,25.20
2022-08-01T21:02:49.005Z,25.10
2022-08-01T21:05:31.930Z,25.10
2022-08-01T21:08:23.123Z,25.00
2022-08-01T21:10:58.058Z,25.00
2022-08-01T21:13:48.354Z,24.90
2022-08-01T21:24:10.310Z,24.70
2022-08-01T21:26:39.126Z,24.60
2022-08-01T21:29:10.449Z,24.60
2022-08-01T21:31:41.431Z,24.50
2022-08-01T21:34:24.376Z,24.50
2022-08-01T21:36:53.254Z,24.40
2022-08-01T21:39:21.654Z,24.40
2022-08-01T21:41:56.702Z,24.30
2022-08-01T21:44:35.863Z,24.30
2022-08-01T21:47:04.403Z,24.20
2022-08-01T21:49:32.366Z,24.20
2022-08-01T21:52:12.193Z,24.20
2022-08-01T21:55:15.493Z,24.10
2022-08-01T21:58:00.426Z,24.10
2022-08-01T22:00:33.507Z,24.00
2022-08-01T22:06:24.999Z,23.90
2022-08-01T22:08:59.405Z,23.90
2022-08-01T22:11:30.846Z,23.80
2022-08-01T22:14:06.127Z,23.70
2022-08-01T22:16:40.900Z,23.70
2022-08-01T22:19:44.195Z,23.70
2022-08-01T22:22:04.616Z,23.60
2022-08-01T22:24:51.575Z,23.60
2022-08-01T22:28:05.947Z,23.50
2022-08-01T22:30:17.724Z,23.50
2022-08-01T22:33:07.239Z,23.50
2022-08-01T22:35:36.806Z,23.50
2022-08-01T22:38:07.882Z,23.40
2022-08-01T22:40:47.856Z,23.40
2022-08-01T22:43:41.846Z,23.40
2022-08-01T22:46:32.698Z,23.30
2022-08-01T22:49:09.267Z,23.30
2022-08-01T22:52:07.633Z,23.20
2022-08-01T22:54:41.561Z,23.20
2022-08-01T22:57:23.464Z,23.20
2022-08-01T23:00:04.539Z,23.10
2022-08-01T23:02:38.249Z,23.10
2022-08-01T23:05:12.143Z,23.10
2022-08-01T23:07:49.626Z,23.10
2022-08-01T23:10:20.718Z,23.10
2022-08-01T23:12:51.703Z,23.00
2022-08-01T23:15:21.984Z,23.00
2022-08-01T23:17:51.166Z,23.00
2022-08-01T23:20:18.990Z,22.90
2022-08-01T23:22:48.022Z,23.00
2022-08-01T23:25:17.059Z,22.90
2022-08-01T23:27:54.286Z,22.90
2022-08-01T23:30:35.170Z,22.80
2022-08-01T23:33:03.735Z,22.80
2022-08-01T23:35:31.306Z,22.70
2022-08-01T23:38:02.854Z,22.70
2022-08-01T23:40:34.674Z,22.70
2022-08-01T23:43:04.539Z,22.70
2022-08-01T23:46:02.623Z,22.70
2022-08-01T23:48:20.984Z,22.60
2022-08-01T23:50:48.358Z,22.60
2022-08-01T23:53:15.846Z,22.60
2022-08-01T23:55:44.537Z,22.60
2022-08-01T23:58:12.002Z,22.60
